Time;durP1;ratioP1;P1;durP2;ratioP2;P2;SDS_P1;SDS_P2;PMS_P1;PMS_P2;Temp;Humidity;BMP_temperature;BMP_pressure;BME280_temperature;BME280_humidity;BME280_pressure;Samples;Min_cycle;Max_cycle;Signal;HPM_P1;HPM_P2
2022/12/19 00:00:15;;;;;;;0.10;0.10;;;;;;;-2.77;100.00;102136.38;10442580;28;20032;-76
2022/12/19 00:05:15;;;;;;;0.10;0.10;;;;;;;-2.78;100.00;102133.81;10406312;28;20033;-75
2022/12/19 00:10:16;;;;;;;0.00;0.00;;;;;;;-2.76;100.00;102121.59;10407725;28;20017;-76
2022/12/19 00:15:16;;;;;;;0.20;0.20;;;;;;;-2.74;100.00;102114.56;10434033;28;20261;-76
2022/12/19 00:20:16;;;;;;;0.10;0.10;;;;;;;-2.70;100.00;102113.59;10412486;28;20338;-75
2022/12/19 00:25:17;;;;;;;0.20;0.20;;;;;;;-2.66;100.00;102094.34;10413151;28;20755;-75
2022/12/19 00:30:17;;;;;;;0.00;0.00;;;;;;;-2.59;100.00;102084.59;10417247;28;20032;-75
2022/12/19 00:35:17;;;;;;;0.10;0.10;;;;;;;-2.51;100.00;102090.44;10431367;28;20017;-75
2022/12/19 00:40:17;;;;;;;0.10;0.10;;;;;;;-2.44;100.00;102080.69;10455158;28;20013;-75
2022/12/19 00:45:18;;;;;;;0.10;0.10;;;;;;;-2.37;100.00;102071.78;10454358;28;20025;-75
2022/12/19 00:50:18;;;;;;;0.10;0.10;;;;;;;-2.30;100.00;102060.25;10443406;28;20018;-75
2022/12/19 00:55:18;;;;;;;0.10;0.10;;;;;;;-2.29;100.00;102056.75;10423416;28;20263;-75
2022/12/19 01:00:19;;;;;;;0.20;0.20;;;;;;;-2.25;100.00;102053.16;10448209;28;20363;-75
2022/12/19 01:05:19;;;;;;;0.10;0.10;;;;;;;-2.12;100.00;102057.09;10412075;28;20087;-75
2022/12/19 01:10:19;;;;;;;0.10;0.10;;;;;;;-2.05;100.00;102050.78;10413376;28;20104;-75
2022/12/19 01:15:20;;;;;;;0.10;0.10;;;;;;;-2.02;100.00;102055.03;10411706;28;20033;-75
2022/12/19 01:20:20;;;;;;;0.10;0.10;;;;;;;-2.03;100.00;102044.66;10412669;28;20283;-75
2022/12/19 01:25:21;;;;;;;0.10;0.10;;;;;;;-2.02;100.00;102035.91;10444724;28;20021;-75
2022/12/19 01:30:21;;;;;;;0.10;0.10;;;;;;;-2.01;100.00;102038.47;10429093;22;20079;-73
2022/12/19 01:35:22;;;;;;;0.00;0.00;;;;;;;-1.96;100.00;102022.66;10375214;28;20369;-73
2022/12/19 01:40:22;;;;;;;0.10;0.10;;;;;;;-1.86;100.00;102001.44;10372374;28;20289;-73
2022/12/19 01:45:31;;;;;;;0.00;0.00;;;;;;;-1.75;100.00;102000.22;10372085;28;20294;-73
2022/12/19 01:50:52;;;;;;;0.00;0.00;;;;;;;-1.73;100.00;101988.81;10371599;28;20026;-73
2022/12/19 01:55:53;;;;;;;0.10;0.10;;;;;;;-1.72;100.00;101977.44;10371845;28;20109;-73
2022/12/19 02:00:54;;;;;;;0.00;0.00;;;;;;;-1.70;100.00;101975.63;10371670;28;20075;-73
2022/12/19 02:05:57;;;;;;;0.00;0.00;;;;;;;-1.68;100.00;101958.16;10385738;28;20025;-73
2022/12/19 02:10:57;;;;;;;0.00;0.00;;;;;;;-1.67;100.00;101956.41;10371284;28;20021;-73
2022/12/19 02:16:34;;;;;;;0.10;0.10;;;;;;;-1.66;100.00;101950.25;10370681;28;20029;-73
2022/12/19 02:21:41;;;;;;;0.05;0.05;;;;;;;-1.64;100.00;101949.28;10300539;28;20037;-73
2022/12/19 02:26:59;;;;;;;0.10;0.10;;;;;;;-1.62;100.00;101955.34;10370623;28;20022;-73
2022/12/19 02:32:05;;;;;;;0.00;0.00;;;;;;;-1.60;100.00;101950.03;10374139;28;20021;-73
2022/12/19 02:37:27;;;;;;;0.10;0.10;;;;;;;-1.56;100.00;101951.66;10401546;28;20030;-73
2022/12/19 02:42:32;;;;;;;0.03;0.03;;;;;;;-1.55;100.00;101935.06;10370136;28;20045;-73
2022/12/19 02:47:33;;;;;;;0.10;0.10;;;;;;;-1.53;100.00;101938.47;10369783;28;20034;-73
2022/12/19 02:52:34;;;;;;;0.00;0.00;;;;;;;-1.52;100.00;101928.88;10352036;28;20045;-73
2022/12/19 02:57:52;;;;;;;0.00;0.00;;;;;;;-1.45;100.00;101931.22;10369531;28;20029;-73
2022/12/19 03:03:15;;;;;;;0.00;0.00;;;;;;;-1.40;100.00;101921.47;10377338;28;20509;-73
2022/12/19 03:08:25;;;;;;;0.00;0.00;;;;;;;-1.41;100.00;101904.06;10336953;28;20546;-73
2022/12/19 03:13:32;;;;;;;0.00;0.00;;;;;;;-1.38;100.00;101906.56;10369209;28;20082;-73
2022/12/19 03:18:33;;;;;;;0.00;0.00;;;;;;;-1.34;100.00;101901.22;10369205;28;20036;-73
2022/12/19 03:23:34;;;;;;;0.00;0.00;;;;;;;-1.32;100.00;101894.19;10368816;28;20026;-73
2022/12/19 03:28:46;;;;;;;0.00;0.00;;;;;;;-1.29;100.00;101887.06;10368885;28;20449;-73
2022/12/19 03:33:53;;;;;;;0.10;0.10;;;;;;;-1.27;100.00;101889.66;10369214;28;20036;-73
2022/12/19 03:38:55;;;;;;;0.00;0.00;;;;;;;-1.25;100.00;101879.97;10368652;28;20463;-73
2022/12/19 03:43:56;;;;;;;0.00;0.00;;;;;;;-1.23;100.00;101867.69;10368157;28;20104;-73
2022/12/19 03:48:57;;;;;;;0.00;0.00;;;;;;;-1.22;100.00;101867.66;10368492;28;20080;-73
2022/12/19 03:54:04;;;;;;;0.00;0.00;;;;;;;-1.20;100.00;101862.34;10368423;28;20018;-73
2022/12/19 03:59:33;;;;;;;0.00;0.00;;;;;;;-1.19;100.00;101854.47;10373480;28;20046;-73
2022/12/19 04:04:38;;;;;;;0.00;0.00;;;;;;;-1.18;100.00;101844.84;10398783;28;20165;-73
2022/12/19 04:09:42;;;;;;;0.13;0.13;;;;;;;-1.12;100.00;101838.53;10375946;28;20025;-73
2022/12/19 04:14:43;;;;;;;0.00;0.00;;;;;;;-1.11;100.00;101842.84;10375396;28;20033;-73
2022/12/19 04:20:06;;;;;;;0.00;0.00;;;;;;;-1.09;100.00;101830.56;10375723;28;20052;-73
2022/12/19 04:25:11;;;;;;;0.00;0.00;;;;;;;-1.10;100.00;101821.88;10332191;28;20053;-73
2022/12/19 04:30:15;;;;;;;0.00;0.00;;;;;;;-1.06;100.00;101802.53;10375551;28;20033;-73
2022/12/19 04:35:15;;;;;;;0.00;0.00;;;;;;;-1.00;100.00;101789.22;10357302;28;20037;-73
2022/12/19 04:40:16;;;;;;;0.00;0.00;;;;;;;-0.93;100.00;101774.16;10374644;28;20025;-74
2022/12/19 04:45:16;;;;;;;0.00;0.00;;;;;;;-0.86;100.00;101759.88;10373711;28;20026;-73
2022/12/19 04:50:16;;;;;;;0.10;0.10;;;;;;;-0.74;100.00;101753.31;10356783;28;20022;-73
2022/12/19 04:55:16;;;;;;;0.00;0.00;;;;;;;-0.72;100.00;101743.63;10373855;28;20083;-73
2022/12/19 05:00:17;;;;;;;0.00;0.00;;;;;;;-0.76;100.00;101749.88;10377556;28;20683;-73
2022/12/19 05:05:17;;;;;;;0.00;0.00;;;;;;;-0.82;100.00;101747.53;10373480;28;20030;-73
2022/12/19 05:10:18;;;;;;;0.00;0.00;;;;;;;-0.87;100.00;101731.16;10373557;28;20261;-73
2022/12/19 05:15:18;;;;;;;0.00;0.00;;;;;;;-0.91;100.00;101717.38;10373197;28;20030;-73
2022/12/19 05:20:18;;;;;;;0.00;0.00;;;;;;;-0.83;100.00;101719.69;10373264;28;20473;-73
2022/12/19 05:25:18;;;;;;;0.10;0.10;;;;;;;-0.78;100.00;101718.56;10372894;28;20420;-73
2022/12/19 05:30:22;;;;;;;0.08;0.08;;;;;;;-0.74;100.00;101703.59;10372510;28;20022;-73
2022/12/19 05:35:22;;;;;;;0.00;0.00;;;;;;;-0.71;100.00;101698.22;10373218;28;20394;-73
2022/12/19 05:40:22;;;;;;;0.00;0.00;;;;;;;-0.64;100.00;101704.91;10354985;28;20033;-73
2022/12/19 05:45:23;;;;;;;0.00;0.00;;;;;;;-0.52;100.00;101700.91;10371951;28;20108;-73
2022/12/19 05:50:23;;;;;;;0.00;0.00;;;;;;;-0.47;100.00;101697.19;10372126;28;20249;-73
2022/12/19 05:55:24;;;;;;;0.00;0.00;;;;;;;-0.36;100.00;101693.22;10371595;28;20038;-73
2022/12/19 06:00:24;;;;;;;0.00;0.00;;;;;;;-0.31;100.00;101676.41;10372133;28;20057;-73
2022/12/19 06:05:24;;;;;;;0.00;0.00;;;;;;;-0.24;100.00;101661.25;10371194;28;20030;-73
2022/12/19 06:10:25;;;;;;;0.00;0.00;;;;;;;-0.19;100.00;101663.69;10371342;28;20403;-73
2022/12/19 06:15:25;;;;;;;0.00;0.00;;;;;;;-0.18;100.00;101671.47;10371014;28;20048;-73
2022/12/19 06:20:25;;;;;;;0.00;0.00;;;;;;;-0.15;100.00;101667.84;10370259;28;20473;-73
2022/12/19 06:25:25;;;;;;;0.00;0.00;;;;;;;-0.11;100.00;101666.81;10370186;28;20075;-73
2022/12/19 06:30:26;;;;;;;0.00;0.00;;;;;;;-0.06;100.00;101656.94;10378303;28;20079;-73
2022/12/19 06:35:26;;;;;;;0.00;0.00;;;;;;;-0.02;100.00;101648.06;10377042;28;20038;-74
2022/12/19 06:45:45;;;;;;;0.00;0.00;;;;;;;0.06;100.00;101645.06;10369387;28;20029;-73
2022/12/19 06:50:46;;;;;;;0.00;0.00;;;;;;;0.11;100.00;101651.78;10369950;28;20432;-74
2022/12/19 06:55:47;;;;;;;0.00;0.00;;;;;;;0.14;100.00;101646.41;10370062;28;20030;-74
2022/12/19 07:00:48;;;;;;;0.00;0.00;;;;;;;0.18;100.00;101639.28;10369888;28;20275;-74
2022/12/19 07:05:49;;;;;;;0.00;0.00;;;;;;;0.26;100.00;101644.97;10375436;28;20033;-74
2022/12/19 07:10:49;;;;;;;0.00;0.00;;;;;;;0.31;100.00;101637.75;10351876;28;20025;-73
2022/12/19 07:15:51;;;;;;;0.00;0.00;;;;;;;0.36;100.00;101640.16;10368704;28;20021;-74
2022/12/19 07:20:51;;;;;;;0.00;0.00;;;;;;;0.36;100.00;101638.38;10368791;28;20829;-74
2022/12/19 07:25:52;;;;;;;0.10;0.10;;;;;;;0.36;100.00;101627.91;10368801;28;20059;-74
2022/12/19 07:30:52;;;;;;;0.00;0.00;;;;;;;0.38;100.00;101630.47;10368416;28;20020;-76
2022/12/19 07:35:52;;;;;;;0.00;0.00;;;;;;;0.36;100.00;101617.41;10361175;28;20617;-76
2022/12/19 07:40:52;;;;;;;0.00;0.00;;;;;;;0.41;100.00;101615.44;10377961;28;20061;-76
2022/12/19 07:45:54;;;;;;;0.00;0.00;;;;;;;0.45;100.00;101616.97;10377302;28;20025;-76
2022/12/19 07:50:55;;;;;;;0.00;0.00;;;;;;;0.51;100.00;101612.34;10360036;28;20028;-76
2022/12/19 07:55:55;;;;;;;0.00;0.00;;;;;;;0.51;100.00;101612.34;10376772;28;20032;-77
2022/12/19 08:00:56;;;;;;;0.00;0.00;;;;;;;0.55;100.00;101608.66;10380088;28;20025;-77
2022/12/19 08:06:01;;;;;;;0.08;0.08;;;;;;;0.59;100.00;101610.22;10376396;28;20085;-77
2022/12/19 08:11:16;;;;;;;0.00;0.00;;;;;;;0.60;100.00;101596.16;10362659;28;20064;-77
2022/12/19 08:16:16;;;;;;;0.00;0.00;;;;;;;0.61;100.00;101598.72;10363315;28;20029;-77
2022/12/19 08:21:17;;;;;;;0.00;0.00;;;;;;;0.62;100.00;101584.69;10380343;28;20026;-77
2022/12/19 08:26:23;;;;;;;0.00;0.00;;;;;;;0.65;100.00;101584.53;10383391;28;20303;-77
2022/12/19 08:31:26;;;;;;;0.00;0.00;;;;;;;0.68;100.00;101586.16;10369184;28;20013;-78
2022/12/19 08:36:26;;;;;;;0.00;0.00;;;;;;;0.66;100.00;101577.50;10386213;28;20022;-77
2022/12/19 08:41:26;;;;;;;0.00;0.00;;;;;;;0.69;100.00;101572.09;10385236;28;20030;-78
2022/12/19 08:46:27;;;;;;;0.00;0.00;;;;;;;0.73;100.00;101578.91;10382424;28;20306;-78
2022/12/19 08:51:27;;;;;;;0.00;0.00;;;;;;;0.74;100.00;101570.09;10387126;28;20464;-77
2022/12/19 08:56:27;;;;;;;0.00;0.00;;;;;;;0.77;100.00;101577.81;10388389;28;20269;-79
2022/12/19 09:01:28;;;;;;;0.00;0.00;;;;;;;0.83;100.00;101568.78;10373534;28;20033;-79
2022/12/19 09:06:28;;;;;;;0.00;0.00;;;;;;;0.86;100.00;101576.50;10367195;28;20265;-78
2022/12/19 09:11:29;;;;;;;0.00;0.00;;;;;;;0.92;100.00;101570.09;10385637;28;20044;-78
2022/12/19 09:16:29;;;;;;;0.00;0.00;;;;;;;0.96;100.00;101555.88;10385628;28;20091;-78
2022/12/19 09:21:29;;;;;;;0.00;0.00;;;;;;;0.96;100.00;101553.25;10367295;28;20476;-77
2022/12/19 09:26:30;;;;;;;0.00;0.00;;;;;;;1.00;100.00;101552.19;10385933;28;20101;-78
2022/12/19 09:31:30;;;;;;;0.00;0.00;;;;;;;1.02;100.00;101548.56;10366840;28;20080;-78
2022/12/19 09:36:30;;;;;;;0.00;0.00;;;;;;;1.11;100.00;101547.22;10384511;28;20033;-77
2022/12/19 09:41:52;;;;;;;0.00;0.00;;;;;;;1.17;100.00;101540.81;10384708;28;20360;-77
2022/12/19 09:46:58;;;;;;;0.00;0.00;;;;;;;1.21;100.00;101543.19;10367271;28;20030;-78
2022/12/19 09:52:04;;;;;;;0.00;0.00;;;;;;;1.26;100.00;101533.28;10367578;28;20097;-78
2022/12/19 09:57:13;;;;;;;0.00;0.00;;;;;;;1.28;100.00;101523.56;10366655;28;20026;-78
2022/12/19 10:02:31;;;;;;;0.00;0.00;;;;;;;1.30;100.00;101526.94;10384638;28;20061;-78
2022/12/19 10:07:32;;;;;;;0.00;0.00;;;;;;;1.35;100.00;101514.41;10385753;28;20022;-79
2022/12/19 10:12:39;;;;;;;0.00;0.00;;;;;;;1.44;100.00;101518.31;10367009;28;20389;-78
2022/12/19 10:17:53;;;;;;;0.00;0.00;;;;;;;1.50;100.00;101510.09;10364216;28;20075;-79
2022/12/19 10:23:28;;;;;;;0.00;0.00;;;;;;;1.56;100.00;101516.81;10383882;28;20026;-78
2022/12/19 10:28:54;;;;;;;0.00;0.00;;;;;;;1.59;100.00;101516.63;10366153;28;20079;-78
2022/12/19 10:33:58;;;;;;;0.10;0.10;;;;;;;1.62;100.00;101499.88;10369269;28;20041;-78
2022/12/19 10:39:10;;;;;;;0.00;0.00;;;;;;;1.67;100.00;101492.59;10365517;28;20477;-79
2022/12/19 10:44:12;;;;;;;0.00;0.00;;;;;;;1.71;100.00;101494.09;10383550;28;20018;-78
2022/12/19 10:49:21;;;;;;;0.00;0.00;;;;;;;1.72;100.00;101491.41;10385296;28;20073;-78
2022/12/19 10:54:23;;;;;;;0.00;0.00;;;;;;;1.80;100.00;101477.81;10380749;28;20042;-79
2022/12/19 10:59:23;;;;;;;0.00;0.00;;;;;;;1.85;100.00;101478.41;10368604;28;20117;-79
2022/12/19 11:04:33;;;;;;;0.00;0.00;;;;;;;1.89;100.00;101464.19;10369173;28;20117;-80
2022/12/19 11:09:45;;;;;;;0.00;0.00;;;;;;;1.98;100.00;101462.81;10387932;28;20030;-79
2022/12/19 11:15:06;;;;;;;0.00;0.00;;;;;;;2.06;100.00;101451.84;10384591;28;20283;-79
2022/12/19 11:20:18;;;;;;;0.00;0.00;;;;;;;2.11;100.00;101445.38;10366549;28;20026;-79
2022/12/19 11:25:22;;;;;;;0.00;0.00;;;;;;;2.11;100.00;101426.16;10381873;28;20588;-80
2022/12/19 11:30:25;;;;;;;0.00;0.00;;;;;;;2.19;100.00;101426.53;10402055;22;20037;-78
2022/12/19 11:35:26;;;;;;;0.00;0.00;;;;;;;2.25;100.00;101426.19;10441052;28;20025;-78
2022/12/19 11:40:40;;;;;;;0.00;0.00;;;;;;;2.33;100.00;101416.06;10416160;28;20024;-78
2022/12/19 11:46:07;;;;;;;0.00;0.00;;;;;;;2.42;100.00;101410.25;10423881;28;20437;-78
2022/12/19 11:51:49;;;;;;;0.00;0.00;;;;;;;2.46;100.00;101416.16;10399885;28;20037;-78
2022/12/19 11:56:50;;;;;;;0.00;0.00;;;;;;;2.53;100.00;101401.72;10402042;28;20075;-78
2022/12/19 12:02:19;;;;;;;0.00;0.00;;;;;;;2.59;100.00;101395.22;10418827;28;20057;-78
2022/12/19 12:07:20;;;;;;;0.00;0.00;;;;;;;2.66;100.00;101393.91;10408496;28;20037;-78
2022/12/19 12:12:25;;;;;;;0.00;0.00;;;;;;;2.79;100.00;101396.63;10416701;28;20404;-78
2022/12/19 12:17:28;;;;;;;0.00;0.00;;;;;;;2.86;100.00;101392.69;10413438;28;20350;-77
2022/12/19 12:22:49;;;;;;;0.00;0.00;;;;;;;2.89;100.00;101381.97;10436961;28;20025;-77
2022/12/19 12:27:53;;;;;;;0.00;0.00;;;;;;;3.02;100.00;101389.94;10456318;28;20103;-77
2022/12/19 12:33:12;;;;;;;0.00;0.00;;;;;;;3.11;100.00;101379.69;10423645;28;20487;-77
2022/12/19 12:38:28;;;;;;;0.00;0.00;;;;;;;3.23;100.00;101370.16;10446607;28;20480;-78
2022/12/19 12:43:41;;;;;;;0.00;0.00;;;;;;;3.33;100.00;101371.22;10461409;28;20098;-78
2022/12/19 12:48:52;;;;;;;0.00;0.00;;;;;;;3.41;100.00;101365.47;10437492;28;20387;-78
2022/12/19 12:54:02;;;;;;;0.00;0.00;;;;;;;3.48;100.00;101358.03;10463271;28;20017;-77
2022/12/19 12:59:04;;;;;;;0.00;0.00;;;;;;;3.49;100.00;101364.97;10436805;28;20365;-78
2022/12/19 13:04:19;;;;;;;0.00;0.00;;;;;;;3.53;100.00;101361.22;10443962;28;20485;-77
2022/12/19 13:09:25;;;;;;;0.00;0.00;;;;;;;3.59;100.00;101352.91;10442725;28;20107;-78
2022/12/19 13:14:34;;;;;;;0.00;0.00;;;;;;;3.62;100.00;101356.16;10444156;28;20526;-78
2022/12/19 13:19:41;;;;;;;0.00;0.00;;;;;;;3.64;100.00;101358.72;10430049;28;20017;-77
2022/12/19 13:24:58;;;;;;;0.00;0.00;;;;;;;3.70;100.00;101341.66;10417992;28;20075;-78
2022/12/19 13:29:58;;;;;;;0.00;0.00;;;;;;;3.75;100.00;101345.69;10426898;28;20462;-77
2022/12/19 13:35:01;;;;;;;0.00;0.00;;;;;;;3.78;100.00;101352.50;10437890;28;20116;-77
2022/12/19 13:40:11;;;;;;;0.03;0.03;;;;;;;3.77;100.00;101338.50;10439019;28;20058;-78
2022/12/19 13:45:18;;;;;;;0.05;0.05;;;;;;;3.85;100.00;101343.25;10438753;28;21126;-75
2022/12/19 13:50:28;;;;;;;0.00;0.00;;;;;;;3.89;100.00;101342.09;10428469;28;20100;-77
2022/12/19 13:55:28;;;;;;;0.00;0.00;;;;;;;3.91;100.00;101345.47;10436479;28;20025;-77
2022/12/19 14:00:51;;;;;;;0.00;0.00;;;;;;;3.95;100.00;101339.03;10426554;28;20029;-76
2022/12/19 14:05:51;;;;;;;0.10;0.10;;;;;;;4.02;100.00;101342.13;10446872;28;21641;-75
2022/12/19 14:10:52;;;;;;;0.00;0.00;;;;;;;4.03;100.00;101323.56;10434566;28;20082;-75
2022/12/19 14:15:53;;;;;;;0.00;0.00;;;;;;;4.08;100.00;101324.09;10430395;28;20036;-76
2022/12/19 14:21:14;;;;;;;0.00;0.00;;;;;;;4.13;100.00;101325.56;10442696;28;20595;-74
2022/12/19 14:26:29;;;;;;;0.00;0.00;;;;;;;4.18;100.00;101334.84;10423225;28;20264;-75
2022/12/19 14:31:31;;;;;;;0.10;0.10;;;;;;;4.27;100.00;101331.56;10431418;28;20060;-75
2022/12/19 14:36:34;;;;;;;0.00;0.00;;;;;;;4.34;100.00;101333.81;10432718;28;20029;-75
2022/12/19 14:47:10;;;;;;;0.10;0.10;;;;;;;4.40;100.00;101343.91;10438757;28;20025;-75
2022/12/19 14:52:31;;;;;;;0.00;0.00;;;;;;;4.48;100.00;101344.22;10433632;28;20021;-74
2022/12/19 14:57:32;;;;;;;0.00;0.00;;;;;;;4.47;100.00;101332.81;10429648;28;20049;-75
2022/12/19 15:02:33;;;;;;;0.00;0.00;;;;;;;4.54;100.00;101334.09;10421723;28;20378;-75
2022/12/19 15:07:33;;;;;;;0.00;0.00;;;;;;;4.62;100.00;101314.22;10428413;28;20029;-74
2022/12/19 15:18:20;;;;;;;0.00;0.00;;;;;;;4.59;100.00;101312.63;10431304;28;20018;-76
2022/12/19 15:23:21;;;;;;;0.00;0.00;;;;;;;4.61;100.00;101307.28;10423686;28;20049;-76
2022/12/19 15:28:33;;;;;;;0.00;0.00;;;;;;;4.60;100.00;101303.78;10426546;28;20045;-75
2022/12/19 15:33:33;;;;;;;0.00;0.00;;;;;;;4.61;100.00;101296.72;10430237;28;20028;-75
2022/12/19 15:38:34;;;;;;;0.10;0.10;;;;;;;4.62;100.00;101298.41;10430684;28;20018;-75
2022/12/19 15:43:34;;;;;;;0.00;0.00;;;;;;;4.65;100.00;101293.72;10431672;28;20017;-75
2022/12/19 15:48:38;;;;;;;0.00;0.00;;;;;;;4.69;100.00;101282.03;10440888;28;20097;-77
2022/12/19 15:53:40;;;;;;;0.10;0.10;;;;;;;4.72;100.00;101273.88;10417336;28;20048;-76
2022/12/19 15:58:40;;;;;;;0.00;0.00;;;;;;;4.71;100.00;101277.50;10414526;28;20584;-76
2022/12/19 16:03:40;;;;;;;0.10;0.10;;;;;;;4.76;100.00;101282.41;10414631;28;20048;-76
2022/12/19 16:08:41;;;;;;;0.03;0.03;;;;;;;4.78;100.00;101267.31;10428511;28;20032;-76
2022/12/19 16:13:45;;;;;;;0.00;0.00;;;;;;;4.82;100.00;101271.41;10437377;28;20252;-74
2022/12/19 16:18:46;;;;;;;0.00;0.00;;;;;;;4.83;100.00;101252.00;10415427;28;20377;-74
2022/12/19 16:23:46;;;;;;;0.00;0.00;;;;;;;4.90;100.00;101262.94;10433687;28;20025;-75
2022/12/19 16:28:46;;;;;;;0.00;0.00;;;;;;;4.91;100.00;101262.81;10415088;28;20029;-76
2022/12/19 16:33:47;;;;;;;0.10;0.10;;;;;;;4.94;100.00;101254.69;10413644;28;20048;-76
2022/12/19 16:38:47;;;;;;;0.00;0.00;;;;;;;5.03;100.00;101241.75;10427602;28;20028;-75
2022/12/19 16:43:48;;;;;;;0.00;0.00;;;;;;;5.08;100.00;101247.56;10444302;28;20025;-75
2022/12/19 16:48:49;;;;;;;0.10;0.10;;;;;;;5.08;100.00;101247.56;10413691;28;20022;-76
2022/12/19 16:53:51;;;;;;;0.00;0.00;;;;;;;5.09;100.00;101246.59;10413202;28;20032;-76
2022/12/19 16:58:52;;;;;;;0.00;0.00;;;;;;;5.13;100.00;101254.19;10430804;28;20494;-76
2022/12/19 17:03:53;;;;;;;0.00;0.00;;;;;;;5.14;100.00;101261.13;10412379;28;20032;-76
2022/12/19 17:08:53;;;;;;;0.10;0.10;;;;;;;5.17;100.00;101244.22;10413578;28;20064;-76
2022/12/19 17:14:01;;;;;;;0.10;0.10;;;;;;;5.21;100.00;101254.47;10379299;22;20562;-75
2022/12/19 17:19:01;;;;;;;0.00;0.00;;;;;;;5.21;100.00;101254.47;10372677;28;20030;-76
2022/12/19 17:24:04;;;;;;;0.00;0.00;;;;;;;5.23;100.00;101249.06;10337621;28;20019;-76
2022/12/19 17:29:04;;;;;;;0.10;0.10;;;;;;;5.23;100.00;101243.78;10331062;28;20046;-76
2022/12/19 17:34:20;;;;;;;0.00;0.00;;;;;;;5.28;100.00;101257.47;10333155;28;20029;-76
2022/12/19 17:39:25;;;;;;;0.00;0.00;;;;;;;5.26;100.00;101254.09;10369705;28;20259;-76
2022/12/19 17:44:26;;;;;;;0.00;0.00;;;;;;;5.26;100.00;101262.03;10354023;28;20441;-76
2022/12/19 17:49:29;;;;;;;0.00;0.00;;;;;;;5.31;100.00;101273.09;10329287;28;20034;-76
2022/12/19 17:54:29;;;;;;;0.00;0.00;;;;;;;5.38;100.00;101269.06;10328127;28;20026;-76
2022/12/19 17:59:29;;;;;;;0.08;0.08;;;;;;;5.38;100.00;101263.78;10329964;28;20022;-75
2022/12/19 18:04:30;;;;;;;0.03;0.03;;;;;;;5.35;100.00;101263.13;10329356;28;20010;-76
2022/12/19 18:09:30;;;;;;;0.00;0.00;;;;;;;5.31;100.00;101259.06;10364721;28;20021;-76
2022/12/19 18:14:31;;;;;;;0.00;0.00;;;;;;;5.27;100.00;101249.69;10365367;28;20384;-76
2022/12/19 18:19:33;;;;;;;0.10;0.10;;;;;;;5.29;100.00;101253.88;10369030;28;20028;-76
2022/12/19 18:24:33;;;;;;;0.08;0.08;;;;;;;5.27;100.00;101250.53;10360570;28;20481;-77
2022/12/19 18:29:33;;;;;;;0.10;0.10;;;;;;;5.27;100.00;101245.25;10325524;28;20026;-77
2022/12/19 18:34:34;;;;;;;0.10;0.10;;;;;;;5.26;100.00;101259.38;10327048;28;20023;-76
2022/12/19 18:39:34;;;;;;;0.00;0.00;;;;;;;5.22;100.00;101255.31;10334190;28;20452;-77
2022/12/19 18:44:35;;;;;;;0.10;0.10;;;;;;;5.17;100.00;101249.50;10346344;28;20036;-77
2022/12/19 18:49:36;;;;;;;0.10;0.10;;;;;;;5.17;100.00;101273.28;10383560;28;20024;-76
2022/12/19 18:54:36;;;;;;;0.00;0.00;;;;;;;5.25;100.00;101275.38;10381196;28;20120;-76
2022/12/19 18:59:37;;;;;;;0.00;0.00;;;;;;;5.27;100.00;101270.81;10347992;28;20454;-76
2022/12/19 19:04:37;;;;;;;0.00;0.00;;;;;;;5.31;100.00;101274.91;10351258;28;20295;-76
2022/12/19 19:09:37;;;;;;;0.10;0.10;;;;;;;5.30;100.00;101266.16;10350767;28;20050;-76
2022/12/19 19:14:38;;;;;;;0.00;0.00;;;;;;;5.27;100.00;101258.44;10355334;28;20018;-76
2022/12/19 19:19:38;;;;;;;0.10;0.10;;;;;;;5.26;100.00;101263.84;10343090;28;20361;-76
2022/12/19 19:24:38;;;;;;;0.00;0.00;;;;;;;5.24;100.00;101268.41;10349054;28;20041;-76
2022/12/19 19:29:39;;;;;;;0.00;0.00;;;;;;;5.21;100.00;101262.38;10334921;28;20280;-77
2022/12/19 19:34:39;;;;;;;0.00;0.00;;;;;;;5.24;100.00;101263.13;10363226;28;20192;-76
2022/12/19 19:39:40;;;;;;;0.00;0.00;;;;;;;5.19;100.00;101250.25;10333386;28;20708;-77
2022/12/19 19:44:41;;;;;;;0.08;0.08;;;;;;;5.22;100.00;101257.94;10362053;28;20022;-77
2022/12/19 19:49:41;;;;;;;0.00;0.00;;;;;;;5.20;100.00;101263.31;10368878;28;20477;-76
2022/12/19 19:54:41;;;;;;;0.00;0.00;;;;;;;5.15;100.00;101264.66;10367259;28;20512;-76
2022/12/19 19:59:41;;;;;;;0.00;0.00;;;;;;;5.14;100.00;101263.78;10367339;28;20388;-77
2022/12/19 20:04:42;;;;;;;0.00;0.00;;;;;;;5.13;100.00;101248.91;10368300;28;20246;-76
2022/12/19 20:14:50;;;;;;;0.10;0.10;;;;;;;5.12;100.00;101270.13;10431029;28;20053;-76
2022/12/19 20:19:50;;;;;;;0.00;0.00;;;;;;;5.07;100.00;101259.09;10430569;28;20021;-76
2022/12/19 20:24:50;;;;;;;0.00;0.00;;;;;;;5.06;100.00;101260.88;10420045;28;20069;-76
2022/12/19 20:29:51;;;;;;;0.00;0.00;;;;;;;5.05;100.00;101264.47;10429794;28;20028;-76
2022/12/19 20:34:51;;;;;;;0.10;0.10;;;;;;;5.02;100.00;101261.22;10409018;28;20025;-76
2022/12/19 20:39:51;;;;;;;0.08;0.08;;;;;;;5.03;100.00;101268.16;10398432;28;20159;-76
2022/12/19 20:44:52;;;;;;;0.00;0.00;;;;;;;4.98;100.00;101269.34;10432783;28;20024;-76
2022/12/19 20:49:52;;;;;;;0.00;0.00;;;;;;;4.94;100.00;101265.25;10436349;28;20463;-76
2022/12/19 20:54:52;;;;;;;0.00;0.00;;;;;;;4.93;100.00;101275.94;10451004;28;20025;-76
2022/12/19 20:59:52;;;;;;;0.00;0.00;;;;;;;4.90;100.00;101281.44;10433854;28;20268;-76
2022/12/19 21:04:53;;;;;;;0.10;0.10;;;;;;;4.86;100.00;101279.94;10423446;28;20014;-76
2022/12/19 21:09:53;;;;;;;0.00;0.00;;;;;;;4.84;100.00;101284.53;10432757;28;20028;-75
2022/12/19 21:14:53;;;;;;;0.00;0.00;;;;;;;4.81;100.00;101297.94;10433357;28;20036;-76
2022/12/19 21:19:54;;;;;;;0.00;0.00;;;;;;;4.76;100.00;101285.06;10418272;28;20028;-76
2022/12/19 21:24:54;;;;;;;0.10;0.10;;;;;;;4.69;100.00;101283.81;10411428;28;20025;-76
2022/12/19 21:29:54;;;;;;;0.03;0.03;;;;;;;4.64;100.00;101281.50;10438211;28;20021;-76
2022/12/19 21:34:54;;;;;;;0.00;0.00;;;;;;;4.60;100.00;101276.56;10436082;28;20022;-76
2022/12/19 21:39:55;;;;;;;0.00;0.00;;;;;;;4.58;100.00;101268.75;10394562;28;20116;-76
2022/12/19 21:44:55;;;;;;;0.00;0.00;;;;;;;4.52;100.00;101256.84;10435889;28;20025;-76
2022/12/19 21:49:55;;;;;;;0.00;0.00;;;;;;;4.42;100.00;101284.84;10423407;28;20480;-76
2022/12/19 21:54:56;;;;;;;0.00;0.00;;;;;;;4.41;100.00;101282.28;10429110;28;20017;-76
2022/12/19 21:59:56;;;;;;;0.00;0.00;;;;;;;4.30;100.00;101278.63;10432339;28;20104;-76
2022/12/19 22:04:56;;;;;;;0.00;0.00;;;;;;;4.25;100.00;101264.09;10431362;28;20463;-76
2022/12/19 22:09:57;;;;;;;0.00;0.00;;;;;;;4.20;100.00;101271.47;10422259;28;20339;-76
2022/12/19 22:14:57;;;;;;;0.00;0.00;;;;;;;4.17;100.00;101276.94;10449234;28;20490;-75
2022/12/19 22:19:57;;;;;;;0.00;0.00;;;;;;;4.14;100.00;101272.72;10431455;28;20047;-76
2022/12/19 22:24:58;;;;;;;0.00;0.00;;;;;;;4.17;100.00;101258.50;10439001;28;20472;-76
2022/12/19 22:29:58;;;;;;;0.00;0.00;;;;;;;4.27;100.00;101262.16;10408830;28;20396;-76
2022/12/19 22:34:58;;;;;;;0.00;0.00;;;;;;;4.40;100.00;101262.16;10432955;28;20017;-76
2022/12/19 22:39:59;;;;;;;0.00;0.00;;;;;;;4.44;100.00;101264.44;10437502;28;20547;-76
2022/12/19 22:44:59;;;;;;;0.00;0.00;;;;;;;4.42;100.00;101271.66;10431878;28;20021;-76
2022/12/19 22:49:59;;;;;;;0.00;0.00;;;;;;;4.42;100.00;101266.38;10427936;28;20017;-75
2022/12/19 22:54:59;;;;;;;0.00;0.00;;;;;;;4.62;100.00;101259.66;10427511;28;20342;-75
2022/12/19 23:00:00;;;;;;;0.00;0.00;;;;;;;4.77;100.00;101268.28;10425536;28;20357;-76
2022/12/19 23:05:00;;;;;;;0.10;0.10;;;;;;;4.83;100.00;101266.97;10413725;28;20037;-75
2022/12/19 23:10:01;;;;;;;0.00;0.00;;;;;;;4.89;100.00;101262.13;10424119;28;20120;-76
2022/12/19 23:15:02;;;;;;;0.00;0.00;;;;;;;4.83;100.00;101244.09;10429141;28;20032;-75
2022/12/19 23:20:03;;;;;;;0.00;0.00;;;;;;;4.74;100.00;101256.16;10417575;28;20038;-75
2022/12/19 23:25:04;;;;;;;0.00;0.00;;;;;;;4.72;100.00;101265.13;10422715;28;20468;-75
2022/12/19 23:30:05;;;;;;;0.00;0.00;;;;;;;4.72;100.00;101257.22;10438248;28;20033;-75